Check out our new PWSWeather beta!
PWSweather.com
Personal Weather Stations
Station Observations
PLIWOJE121
HaczowPL 36-213

HaczowPL 36-213

Lat: 49.66759829999999, Lon: 21.890613799999983

Elevation: 9

Station Type: WH1080

Latest ConditionsUpdated 10:40:00 AM GMT+01:01 Wednesday, Feb 26, 2020
Currently Today's Max Today's Min Today's Average
Temperature 49.5°F9.7°C 50.7°F10.4°C 42.3°F5.7°C 44.9°F7.2°C
Dew Point 36.6°F2.6°C 37.0°F2.8°C 32.2°F0.1°C 33.7°F0.9°C
Winds 9.2 mph SW14.8 kmh SW 9.8 mph -15.8 kmh - - 3.5 mph 5.6 kmh
Wind Gusts 14.5 mph23.3 kmh 14.5 mph23.3 kmh - -
Humidity 61% 70% 58% 65%
Pressure 28.94 in980.0 mb 29.08 in984.8 mb 28.94 in980.0 mb -
Hour Temp Dew Point Humidity Winds Wind Gusts Pressure Precip Precip Rate Daily Precip Total
10:40 AM 49.5°F9.7°C 36.6°F2.6°C 61% 9.2 mph SW14.8 kmh SW 14.5 mph23.3 kmh 28.94 in980.0 mb 0.00 in0.0 mm 0.00 in0.0 mm 0.00 in0.0 mm
10:30 AM 49.5°F9.7°C 36.1°F2.3°C 60% 9.8 mph SSW15.8 kmh SSW 14.5 mph23.3 kmh 28.94 in980.0 mb 0.00 in0.0 mm 0.00 in0.0 mm 0.00 in0.0 mm
10:20 AM 50.7°F10.4°C 36.5°F2.5°C 58% 6.0 mph S9.7 kmh S 13.6 mph21.9 kmh 28.94 in980.0 mb 0.00 in0.0 mm 0.00 in0.0 mm 0.00 in0.0 mm
10:10 AM 50.4°F10.2°C 36.6°F2.6°C 59% 4.5 mph S7.2 kmh S 11.4 mph18.3 kmh 28.95 in980.4 mb 0.00 in0.0 mm 0.00 in0.0 mm 0.00 in0.0 mm
10:00 AM 49.5°F9.7°C 37.0°F2.8°C 62% 2.2 mph SSW3.5 kmh SSW 8.3 mph13.4 kmh 28.94 in980.0 mb 0.00 in0.0 mm 0.00 in0.0 mm 0.00 in0.0 mm
09:50 AM 48.4°F9.1°C 36.0°F2.2°C 62% 4.5 mph SW7.2 kmh SW 8.3 mph13.4 kmh 28.94 in980.0 mb 0.00 in0.0 mm 0.00 in0.0 mm 0.00 in0.0 mm
09:40 AM 48.6°F9.2°C 36.1°F2.3°C 62% 5.4 mph SSW8.7 kmh SSW 10.7 mph17.2 kmh 28.95 in980.4 mb 0.00 in0.0 mm 0.00 in0.0 mm 0.00 in0.0 mm
09:30 AM 48.4°F9.1°C 36.0°F2.2°C 62% 4.5 mph SW7.2 kmh SW 13.0 mph20.9 kmh 28.94 in980.0 mb 0.00 in0.0 mm 0.00 in0.0 mm 0.00 in0.0 mm
09:20 AM 48.2°F9.0°C 35.8°F2.1°C 62% 4.5 mph SSE7.2 kmh SSE 9.2 mph14.8 kmh 28.95 in980.4 mb 0.00 in0.0 mm 0.00 in0.0 mm 0.00 in0.0 mm
09:10 AM 48.2°F9.0°C 35.8°F2.1°C 62% 4.5 mph SE7.2 kmh SE 9.2 mph14.8 kmh 28.95 in980.4 mb 0.00 in0.0 mm 0.00 in0.0 mm 0.00 in0.0 mm
09:00 AM 48.2°F9.0°C 36.6°F2.6°C 64% 4.5 mph SE7.2 kmh SE 9.8 mph15.8 kmh 28.95 in980.4 mb 0.00 in0.0 mm 0.00 in0.0 mm 0.00 in0.0 mm
08:50 AM 46.9°F8.3°C 36.2°F2.3°C 66% 7.6 mph SE12.2 kmh SE 9.8 mph15.8 kmh 28.95 in980.4 mb 0.00 in0.0 mm 0.00 in0.0 mm 0.00 in0.0 mm
08:40 AM 45.7°F7.6°C 35.3°F1.8°C 67% 6.9 mph SE11.1 kmh SE 12.1 mph19.5 kmh 28.95 in980.4 mb 0.00 in0.0 mm 0.00 in0.0 mm 0.00 in0.0 mm
08:30 AM 45.1°F7.3°C 34.8°F1.6°C 67% 3.8 mph SSE6.1 kmh SSE 9.8 mph15.8 kmh 28.95 in980.4 mb 0.00 in0.0 mm 0.00 in0.0 mm 0.00 in0.0 mm
08:20 AM 44.6°F7.0°C 34.3°F1.3°C 67% 3.1 mph SE5.0 kmh SE 9.8 mph15.8 kmh 28.95 in980.4 mb 0.00 in0.0 mm 0.00 in0.0 mm 0.00 in0.0 mm
08:10 AM 44.4°F6.9°C 34.5°F1.4°C 68% 3.1 mph S5.0 kmh S 6.9 mph11.1 kmh 28.95 in980.4 mb 0.00 in0.0 mm 0.00 in0.0 mm 0.00 in0.0 mm
08:00 AM 43.9°F6.6°C 34.0°F1.1°C 68% Calm Calm 10.7 mph17.2 kmh 28.95 in980.4 mb 0.00 in0.0 mm 0.00 in0.0 mm 0.00 in0.0 mm
07:50 AM 43.2°F6.2°C 33.7°F0.9°C 69% 4.5 mph E7.2 kmh E 9.8 mph15.8 kmh 28.95 in980.4 mb 0.00 in0.0 mm 0.00 in0.0 mm 0.00 in0.0 mm
07:40 AM 42.4°F5.8°C 33.3°F0.7°C 70% Calm Calm -- 28.95 in980.4 mb 0.00 in0.0 mm 0.00 in0.0 mm 0.00 in0.0 mm
07:30 AM 42.3°F5.7°C 33.2°F0.7°C 70% Calm Calm -- 28.95 in980.4 mb 0.00 in0.0 mm 0.00 in0.0 mm 0.00 in0.0 mm
07:20 AM 42.6°F5.9°C 33.2°F0.7°C 69% Calm Calm 3.8 mph6.1 kmh 28.95 in980.4 mb 0.00 in0.0 mm 0.00 in0.0 mm 0.00 in0.0 mm
07:10 AM 43.3°F6.3°C 33.8°F1.0°C 69% Calm Calm -- 28.95 in980.4 mb 0.00 in0.0 mm 0.00 in0.0 mm 0.00 in0.0 mm
07:00 AM 42.6°F5.9°C 33.5°F0.8°C 70% Calm Calm 1.6 mph2.6 kmh 28.95 in980.4 mb 0.00 in0.0 mm 0.00 in0.0 mm 0.00 in0.0 mm
06:50 AM 42.4°F5.8°C 33.3°F0.7°C 70% 0.7 mph N1.1 kmh N 3.8 mph6.1 kmh 28.95 in980.4 mb 0.00 in0.0 mm 0.00 in0.0 mm 0.00 in0.0 mm
06:40 AM 42.6°F5.9°C 33.2°F0.7°C 69% 1.6 mph N2.6 kmh N 2.2 mph3.5 kmh 28.95 in980.4 mb 0.00 in0.0 mm 0.00 in0.0 mm 0.00 in0.0 mm
06:30 AM 43.2°F6.2°C 33.3°F0.7°C 68% Calm Calm 3.8 mph6.1 kmh 28.95 in980.4 mb 0.00 in0.0 mm 0.00 in0.0 mm 0.00 in0.0 mm
06:20 AM 43.3°F6.3°C 33.1°F0.6°C 67% 1.6 mph E2.6 kmh E 8.3 mph13.4 kmh 28.95 in980.4 mb 0.00 in0.0 mm 0.00 in0.0 mm 0.00 in0.0 mm
06:10 AM 43.9°F6.6°C 33.6°F0.9°C 67% 6.0 mph E9.7 kmh E 7.6 mph12.2 kmh 28.95 in980.4 mb 0.00 in0.0 mm 0.00 in0.0 mm 0.00 in0.0 mm
06:00 AM 44.1°F6.7°C 33.8°F1.0°C 67% 1.6 mph ENE2.6 kmh ENE 9.8 mph15.8 kmh 28.96 in980.7 mb 0.00 in0.0 mm 0.00 in0.0 mm 0.00 in0.0 mm
05:50 AM 43.9°F6.6°C 33.6°F0.9°C 67% 3.8 mph ENE6.1 kmh ENE 9.2 mph14.8 kmh 28.97 in981.0 mb 0.00 in0.0 mm 0.00 in0.0 mm 0.00 in0.0 mm
05:40 AM 43.9°F6.6°C 33.6°F0.9°C 67% 3.8 mph E6.1 kmh E 6.9 mph11.1 kmh 28.98 in981.4 mb 0.00 in0.0 mm 0.00 in0.0 mm 0.00 in0.0 mm
05:30 AM 43.5°F6.4°C 33.3°F0.7°C 67% 3.1 mph E5.0 kmh E 6.9 mph11.1 kmh 28.98 in981.4 mb 0.00 in0.0 mm 0.00 in0.0 mm 0.00 in0.0 mm
05:20 AM 43.7°F6.5°C 33.5°F0.8°C 67% 3.8 mph E6.1 kmh E 8.3 mph13.4 kmh 28.98 in981.4 mb 0.00 in0.0 mm 0.00 in0.0 mm 0.00 in0.0 mm
05:10 AM 43.5°F6.4°C 32.9°F0.5°C 66% 6.9 mph E11.1 kmh E 9.2 mph14.8 kmh 28.97 in981.0 mb 0.00 in0.0 mm 0.00 in0.0 mm 0.00 in0.0 mm
05:00 AM 44.1°F6.7°C 33.4°F0.8°C 66% 3.8 mph ESE6.1 kmh ESE 6.9 mph11.1 kmh 28.98 in981.4 mb 0.00 in0.0 mm 0.00 in0.0 mm 0.00 in0.0 mm
04:50 AM 43.9°F6.6°C 33.6°F0.9°C 67% 2.2 mph E3.5 kmh E 5.4 mph8.7 kmh 28.99 in981.7 mb 0.00 in0.0 mm 0.00 in0.0 mm 0.00 in0.0 mm
04:40 AM 43.3°F6.3°C 33.1°F0.6°C 67% 3.1 mph E5.0 kmh E 5.4 mph8.7 kmh 28.99 in981.7 mb 0.00 in0.0 mm 0.00 in0.0 mm 0.00 in0.0 mm
04:30 AM 43.0°F6.1°C 32.8°F0.4°C 67% 3.8 mph ESE6.1 kmh ESE 6.0 mph9.7 kmh 29.00 in982.1 mb 0.00 in0.0 mm 0.00 in0.0 mm 0.00 in0.0 mm
04:20 AM 44.2°F6.8°C 33.2°F0.7°C 65% 3.1 mph E5.0 kmh E 9.8 mph15.8 kmh 29.00 in982.1 mb 0.00 in0.0 mm 0.00 in0.0 mm 0.00 in0.0 mm
04:10 AM 44.4°F6.9°C 33.4°F0.8°C 65% 6.0 mph E9.7 kmh E 8.3 mph13.4 kmh 29.00 in982.1 mb 0.00 in0.0 mm 0.00 in0.0 mm 0.00 in0.0 mm
04:00 AM 44.2°F6.8°C 33.2°F0.7°C 65% 1.6 mph E2.6 kmh E 9.2 mph14.8 kmh 29.00 in982.1 mb 0.00 in0.0 mm 0.00 in0.0 mm 0.00 in0.0 mm
03:50 AM 44.2°F6.8°C 33.2°F0.7°C 65% 6.9 mph E11.1 kmh E 9.8 mph15.8 kmh 29.00 in982.1 mb 0.00 in0.0 mm 0.00 in0.0 mm 0.00 in0.0 mm
03:40 AM 44.1°F6.7°C 32.7°F0.4°C 64% 6.9 mph E11.1 kmh E 12.1 mph19.5 kmh 29.01 in982.4 mb 0.00 in0.0 mm 0.00 in0.0 mm 0.00 in0.0 mm
03:30 AM 44.4°F6.9°C 32.6°F0.3°C 63% 7.6 mph E12.2 kmh E 9.8 mph15.8 kmh 29.01 in982.4 mb 0.00 in0.0 mm 0.00 in0.0 mm 0.00 in0.0 mm
03:20 AM 44.6°F7.0°C 32.4°F0.2°C 62% 6.0 mph ENE9.7 kmh ENE 8.3 mph13.4 kmh 29.01 in982.4 mb 0.00 in0.0 mm 0.00 in0.0 mm 0.00 in0.0 mm
03:10 AM 44.6°F7.0°C 32.4°F0.2°C 62% 4.5 mph E7.2 kmh E 8.3 mph13.4 kmh 29.02 in982.7 mb 0.00 in0.0 mm 0.00 in0.0 mm 0.00 in0.0 mm
03:00 AM 44.8°F7.1°C 32.5°F0.3°C 62% 5.4 mph E8.7 kmh E 7.6 mph12.2 kmh 29.02 in982.7 mb 0.00 in0.0 mm 0.00 in0.0 mm 0.00 in0.0 mm
02:50 AM 44.4°F6.9°C 32.6°F0.3°C 63% 2.2 mph E3.5 kmh E 7.6 mph12.2 kmh 29.02 in982.7 mb 0.00 in0.0 mm 0.00 in0.0 mm 0.00 in0.0 mm
02:40 AM 44.2°F6.8°C 32.8°F0.4°C 64% 3.1 mph E5.0 kmh E 7.6 mph12.2 kmh 29.02 in982.7 mb 0.00 in0.0 mm 0.00 in0.0 mm 0.00 in0.0 mm
02:30 AM 44.2°F6.8°C 32.4°F0.2°C 63% 3.8 mph E6.1 kmh E 7.6 mph12.2 kmh 29.02 in982.7 mb 0.00 in0.0 mm 0.00 in0.0 mm 0.00 in0.0 mm
02:20 AM 44.2°F6.8°C 32.4°F0.2°C 63% 3.8 mph E6.1 kmh E 6.9 mph11.1 kmh 29.03 in983.1 mb 0.00 in0.0 mm 0.00 in0.0 mm 0.00 in0.0 mm
02:10 AM 44.1°F6.7°C 32.7°F0.4°C 64% 3.1 mph NE5.0 kmh NE 4.5 mph7.2 kmh 29.04 in983.4 mb 0.00 in0.0 mm 0.00 in0.0 mm 0.00 in0.0 mm
02:00 AM 43.9°F6.6°C 32.5°F0.3°C 64% Calm Calm 3.1 mph5.0 kmh 29.04 in983.4 mb 0.00 in0.0 mm 0.00 in0.0 mm 0.00 in0.0 mm
01:50 AM 43.7°F6.5°C 32.3°F0.2°C 64% Calm Calm 2.2 mph3.5 kmh 29.04 in983.4 mb 0.00 in0.0 mm 0.00 in0.0 mm 0.00 in0.0 mm
01:40 AM 43.9°F6.6°C 32.5°F0.3°C 64% Calm Calm 1.6 mph2.6 kmh 29.05 in983.7 mb 0.00 in0.0 mm 0.00 in0.0 mm 0.00 in0.0 mm
01:30 AM 44.2°F6.8°C 32.8°F0.4°C 64% Calm Calm 1.6 mph2.6 kmh 29.05 in983.7 mb 0.00 in0.0 mm 0.00 in0.0 mm 0.00 in0.0 mm
01:20 AM 44.2°F6.8°C 32.8°F0.4°C 64% 0.7 mph W1.1 kmh W 1.6 mph2.6 kmh 29.06 in984.1 mb 0.00 in0.0 mm 0.00 in0.0 mm 0.00 in0.0 mm
01:10 AM 44.2°F6.8°C 32.8°F0.4°C 64% Calm Calm 3.1 mph5.0 kmh 29.06 in984.1 mb 0.00 in0.0 mm 0.00 in0.0 mm 0.00 in0.0 mm
01:00 AM 44.2°F6.8°C 32.8°F0.4°C 64% 1.6 mph NW2.6 kmh NW 3.1 mph5.0 kmh 29.07 in984.4 mb 0.00 in0.0 mm 0.00 in0.0 mm 0.00 in0.0 mm
12:50 AM 44.4°F6.9°C 33.0°F0.6°C 64% 1.6 mph NW2.6 kmh NW 3.1 mph5.0 kmh 29.07 in984.4 mb 0.00 in0.0 mm 0.00 in0.0 mm 0.00 in0.0 mm
12:40 AM 44.6°F7.0°C 32.4°F0.2°C 62% 1.6 mph NW2.6 kmh NW 7.6 mph12.2 kmh 29.08 in984.8 mb 0.00 in0.0 mm 0.00 in0.0 mm 0.00 in0.0 mm
12:30 AM 45.0°F7.2°C 32.3°F0.2°C 61% 3.1 mph NW5.0 kmh NW 9.8 mph15.8 kmh 29.07 in984.4 mb 0.00 in0.0 mm 0.00 in0.0 mm 0.00 in0.0 mm
12:20 AM 45.3°F7.4°C 32.2°F0.1°C 60% 6.0 mph NW9.7 kmh NW 10.7 mph17.2 kmh 29.08 in984.8 mb 0.00 in0.0 mm 0.00 in0.0 mm 0.00 in0.0 mm
12:10 AM 46.0°F7.8°C 32.5°F0.3°C 59% 7.6 mph NW12.2 kmh NW 10.7 mph17.2 kmh 29.08 in984.8 mb 0.00 in0.0 mm 0.00 in0.0 mm 0.00 in0.0 mm
12:00 AM 46.4°F8.0°C 32.8°F0.4°C 59% 7.6 mph WNW12.2 kmh WNW 13.6 mph21.9 kmh 29.07 in984.4 mb 0.00 in0.0 mm 0.00 in0.0 mm 0.00 in0.0 mm